Terminal Aerodrome Forecast
Issued by NWS Shreveport, LA

Home | Current Version | Previous Version | Text Only | Print | Product List | Glossary On
Versions: 1 2 3 4 5 6 7 8 9 10 11 12 13 14
000
FTUS44 KSHV 182300
TAFLFK
TAF
KLFK 182326Z 1900/1924 04004KT P6SM FEW060
     FM190200 VRB03KT P6SM SKC
     FM190700 VRB03KT P6SM BKN250
     FM191000 VRB03KT 5SM BR BKN250
     FM191400 12004KT P6SM BKN250
     FM191600 12005KT P6SM SCT035 BKN250=

USA.gov is the U.S. government's official web portal to all federal, state and local government web resources and services.